createdAt,value
2018-12-03T00:02:28.065Z,96.30
2018-12-03T00:04:56.185Z,96.30
2018-12-03T00:07:24.331Z,96.20
2018-12-03T00:09:52.435Z,96.20
2018-12-03T00:12:20.462Z,96.10
2018-12-03T00:14:48.700Z,96.10
2018-12-03T00:17:16.841Z,96.10
2018-12-03T00:19:44.997Z,96.10
2018-12-03T00:22:13.133Z,96.10
2018-12-03T00:24:41.274Z,96.10
2018-12-03T00:27:09.372Z,96.10
2018-12-03T00:29:37.495Z,96.10
2018-12-03T00:32:06.195Z,96.10
2018-12-03T00:34:35.040Z,96.10
2018-12-03T00:37:03.763Z,96.00
2018-12-03T00:39:31.813Z,96.00
2018-12-03T00:41:59.913Z,96.00
2018-12-03T00:44:28.192Z,96.10
2018-12-03T00:46:56.532Z,96.00
2018-12-03T00:49:24.672Z,96.00
2018-12-03T00:51:52.707Z,96.00
2018-12-03T00:54:20.830Z,95.90
2018-12-03T00:56:48.952Z,96.00
2018-12-03T00:59:17.096Z,95.90
2018-12-03T01:01:45.264Z,96.00
2018-12-03T01:04:13.306Z,96.00
2018-12-03T01:06:41.513Z,96.00
2018-12-03T01:09:09.621Z,96.00
2018-12-03T01:11:38.240Z,95.90
2018-12-03T01:14:06.668Z,95.90
2018-12-03T01:16:35.138Z,95.90
2018-12-03T01:19:03.156Z,96.00
2018-12-03T01:21:31.350Z,96.00
2018-12-03T01:23:59.500Z,96.10
2018-12-03T01:26:27.616Z,96.10
2018-12-03T01:28:55.712Z,96.30
2018-12-03T01:31:23.853Z,96.30
2018-12-03T01:33:51.974Z,96.30
2018-12-03T01:36:20.094Z,96.20
2018-12-03T01:38:48.169Z,96.20
2018-12-03T01:41:16.270Z,96.10
2018-12-03T01:43:44.358Z,96.10
2018-12-03T01:46:12.452Z,96.10
2018-12-03T01:48:40.473Z,96.10
2018-12-03T01:51:09.408Z,96.20
2018-12-03T01:53:38.504Z,96.20
2018-12-03T01:56:07.291Z,96.50
2018-12-03T01:58:35.359Z,96.20
2018-12-03T02:01:03.443Z,96.30
2018-12-03T02:03:31.498Z,96.50
2018-12-03T02:05:59.561Z,96.20
2018-12-03T02:08:27.649Z,96.20
2018-12-03T02:10:55.706Z,96.10
2018-12-03T02:13:23.746Z,96.20
2018-12-03T02:15:51.817Z,96.20
2018-12-03T02:18:19.845Z,96.20
2018-12-03T02:20:47.886Z,96.20
2018-12-03T02:23:15.995Z,96.50
2018-12-03T02:25:44.042Z,96.60
2018-12-03T02:28:12.065Z,96.90
2018-12-03T02:30:40.365Z,97.10
2018-12-03T02:33:08.495Z,97.30
2018-12-03T02:35:36.598Z,97.40
2018-12-03T02:38:04.666Z,97.50
2018-12-03T02:40:32.694Z,97.60
2018-12-03T02:43:00.763Z,97.50
2018-12-03T02:45:28.794Z,97.50
2018-12-03T02:47:56.812Z,97.50
2018-12-03T02:50:24.852Z,97.50
2018-12-03T02:52:52.856Z,97.60
2018-12-03T02:55:20.896Z,97.70
2018-12-03T02:57:48.945Z,97.60
2018-12-03T03:00:17.057Z,97.60
2018-12-03T03:02:45.214Z,97.60
2018-12-03T03:05:14.558Z,97.50
2018-12-03T03:07:43.305Z,97.30
2018-12-03T03:10:14.181Z,97.30
2018-12-03T03:12:43.148Z,97.30
2018-12-03T03:15:12.685Z,97.20
2018-12-03T03:17:40.720Z,97.10
2018-12-03T03:20:42.418Z,97.00
2018-12-03T03:23:10.497Z,96.80
2018-12-03T03:25:38.526Z,96.70
2018-12-03T03:28:06.525Z,96.70
2018-12-03T03:30:34.537Z,96.80
2018-12-03T03:33:02.564Z,96.80
2018-12-03T03:35:30.672Z,96.80
2018-12-03T03:37:58.709Z,96.70
2018-12-03T03:40:26.761Z,96.70
2018-12-03T03:42:54.794Z,96.80
2018-12-03T03:45:24.178Z,96.70
2018-12-03T03:47:52.268Z,96.70
2018-12-03T03:50:20.316Z,96.60
2018-12-03T03:52:48.320Z,96.50
2018-12-03T03:55:16.401Z,96.40
2018-12-03T03:57:45.041Z,96.50
2018-12-03T04:00:14.864Z,96.60
2018-12-03T04:02:42.884Z,96.50
2018-12-03T04:05:13.804Z,96.50
2018-12-03T04:07:42.754Z,96.60
2018-12-03T04:10:11.738Z,96.60
2018-12-03T04:12:40.334Z,96.60
2018-12-03T04:15:09.564Z,96.60
2018-12-03T04:17:37.585Z,96.70
2018-12-03T04:20:09.463Z,96.70
2018-12-03T04:22:37.608Z,96.60
2018-12-03T04:25:06.757Z,96.50
2018-12-03T04:27:34.800Z,96.40
2018-12-03T04:30:02.825Z,96.30
2018-12-03T04:32:30.892Z,96.30
2018-12-03T04:34:58.903Z,96.40
2018-12-03T04:37:26.924Z,96.40
2018-12-03T04:39:54.965Z,96.30
2018-12-03T04:42:23.044Z,96.30
2018-12-03T04:44:51.136Z,96.20
2018-12-03T04:47:20.136Z,96.30
2018-12-03T04:49:48.278Z,96.30
2018-12-03T04:52:16.302Z,96.30
2018-12-03T04:54:44.355Z,96.30
2018-12-03T04:57:12.544Z,96.20
2018-12-03T04:59:40.881Z,96.10
2018-12-03T05:02:08.949Z,96.00
2018-12-03T05:04:37.002Z,96.10
2018-12-03T05:07:05.115Z,96.10
2018-12-03T05:09:33.224Z,96.10
2018-12-03T05:12:01.280Z,96.10
2018-12-03T05:14:29.397Z,96.20
2018-12-03T05:16:57.440Z,96.30
2018-12-03T05:19:25.553Z,96.30
2018-12-03T05:21:53.584Z,96.30
2018-12-03T05:24:21.587Z,96.60
2018-12-03T05:26:50.632Z,96.50
2018-12-03T05:29:18.721Z,96.60
2018-12-03T05:31:46.772Z,97.00
2018-12-03T05:34:14.813Z,96.70
2018-12-03T05:36:42.839Z,96.70
2018-12-03T05:39:10.848Z,96.80
2018-12-03T05:41:38.892Z,96.70
2018-12-03T05:44:06.976Z,96.80
2018-12-03T05:46:34.987Z,96.90
2018-12-03T05:49:02.988Z,96.80
2018-12-03T05:51:31.044Z,96.80
2018-12-03T05:53:59.080Z,96.70
2018-12-03T05:56:27.109Z,96.70
2018-12-03T05:58:55.143Z,96.60
2018-12-03T06:01:23.417Z,96.70
2018-12-03T06:03:51.904Z,96.70
2018-12-03T06:06:19.986Z,96.70
2018-12-03T06:08:48.031Z,96.80
2018-12-03T06:11:16.042Z,96.90
2018-12-03T06:13:44.085Z,96.90
2018-12-03T06:16:12.222Z,96.90
2018-12-03T06:18:40.492Z,97.00
2018-12-03T06:21:08.504Z,97.10
2018-12-03T06:23:36.559Z,97.10
2018-12-03T06:26:04.831Z,97.10
2018-12-03T06:28:32.868Z,97.10
2018-12-03T06:31:00.912Z,97.10
2018-12-03T06:33:28.976Z,96.90
2018-12-03T06:35:57.100Z,96.90
2018-12-03T06:38:25.117Z,96.90
2018-12-03T06:40:53.156Z,96.80
2018-12-03T06:43:21.387Z,96.80
2018-12-03T06:45:49.494Z,96.70
2018-12-03T06:48:20.272Z,96.60
2018-12-03T06:50:48.312Z,96.50
2018-12-03T06:53:16.284Z,96.50
2018-12-03T06:55:44.262Z,96.50
2018-12-03T06:58:12.398Z,96.60
2018-12-03T07:00:40.473Z,96.60
2018-12-03T07:03:08.503Z,96.70
2018-12-03T07:05:36.480Z,96.90
2018-12-03T07:08:05.713Z,97.10
2018-12-03T07:10:33.673Z,96.50
2018-12-03T07:13:03.445Z,96.60
2018-12-03T07:15:33.155Z,96.50
2018-12-03T07:18:01.162Z,96.40
2018-12-03T07:20:29.147Z,96.30
2018-12-03T07:22:57.395Z,96.30
2018-12-03T07:25:25.385Z,96.30
2018-12-03T07:27:53.367Z,96.30
2018-12-03T07:30:22.624Z,96.10
2018-12-03T07:32:51.105Z,96.10
2018-12-03T07:35:19.869Z,96.10
2018-12-03T07:37:48.561Z,96.10
2018-12-03T07:40:16.587Z,96.20
2018-12-03T07:42:44.598Z,96.20
2018-12-03T07:45:17.172Z,96.10
2018-12-03T07:47:45.187Z,96.10
2018-12-03T07:50:14.249Z,96.10
2018-12-03T07:52:42.309Z,96.10
2018-12-03T07:55:14.482Z,96.00
2018-12-03T07:57:46.077Z,95.70
2018-12-03T08:00:16.791Z,95.50
2018-12-03T08:02:44.783Z,95.60
2018-12-03T08:05:12.800Z,95.30
2018-12-03T08:07:40.917Z,95.70
2018-12-03T08:10:12.293Z,95.20
2018-12-03T08:12:40.560Z,95.10
2018-12-03T08:15:11.741Z,95.10
2018-12-03T08:17:39.957Z,95.00
2018-12-03T08:20:15.816Z,94.80
2018-12-03T08:22:43.980Z,94.60
2018-12-03T08:25:12.013Z,94.50
2018-12-03T08:27:40.065Z,94.50
2018-12-03T08:30:10.326Z,94.70
2018-12-03T08:32:42.617Z,94.70
2018-12-03T08:35:13.327Z,94.80
2018-12-03T08:37:41.537Z,94.70
2018-12-03T08:40:13.874Z,94.70
2018-12-03T08:42:52.670Z,94.70
2018-12-03T08:45:21.708Z,94.70
2018-12-03T08:47:50.184Z,94.70
2018-12-03T08:50:19.454Z,94.50
2018-12-03T08:52:47.522Z,94.20
2018-12-03T08:55:16.048Z,94.30
2018-12-03T08:57:44.333Z,94.10
2018-12-03T09:00:29.068Z,93.80
2018-12-03T09:03:02.451Z,93.70
2018-12-03T09:05:31.960Z,93.70
2018-12-03T09:08:00.080Z,93.60
2018-12-03T09:10:28.215Z,93.60
2018-12-03T09:12:56.576Z,93.80
2018-12-03T09:15:24.685Z,93.70
2018-12-03T09:17:52.709Z,93.40
2018-12-03T09:20:20.707Z,93.40
2018-12-03T09:22:48.693Z,93.10
2018-12-03T09:25:22.208Z,92.80
2018-12-03T09:27:50.645Z,92.50
2018-12-03T09:30:18.801Z,92.20
2018-12-03T09:32:47.165Z,92.30
2018-12-03T09:35:15.208Z,92.40
2018-12-03T09:37:43.283Z,92.40
2018-12-03T09:40:14.773Z,92.50
2018-12-03T09:42:42.787Z,92.80
2018-12-03T09:45:14.746Z,92.70
2018-12-03T09:47:42.750Z,92.70
2018-12-03T09:50:20.746Z,92.80
2018-12-03T09:52:49.313Z,92.80
2018-12-03T09:55:31.861Z,93.10
2018-12-03T09:58:13.798Z,93.20
2018-12-03T10:00:42.279Z,93.10
2018-12-03T10:03:16.070Z,93.00
2018-12-03T10:06:02.125Z,93.20
2018-12-03T10:08:31.591Z,93.20
2018-12-03T10:11:01.729Z,93.10
2018-12-03T10:13:30.680Z,93.20
2018-12-03T10:15:59.411Z,93.40
2018-12-03T10:18:28.037Z,93.40
2018-12-03T10:20:59.704Z,93.40
2018-12-03T10:23:28.613Z,93.40
2018-12-03T10:25:58.509Z,93.60
2018-12-03T10:28:27.144Z,93.90
2018-12-03T10:30:56.344Z,93.80
2018-12-03T10:33:32.649Z,93.60
2018-12-03T10:36:03.611Z,93.70
2018-12-03T10:38:33.521Z,93.70
2018-12-03T10:41:10.995Z,94.00
2018-12-03T10:43:39.073Z,93.90
2018-12-03T10:46:08.578Z,94.00
2018-12-03T10:48:36.668Z,94.30
2018-12-03T10:51:07.303Z,94.20
2018-12-03T10:53:35.327Z,94.10
2018-12-03T10:56:03.372Z,94.00
2018-12-03T10:58:34.808Z,94.00
2018-12-03T11:01:22.698Z,93.90
2018-12-03T11:03:56.205Z,93.60
2018-12-03T11:06:24.841Z,93.40
2018-12-03T11:08:53.124Z,93.40
2018-12-03T11:11:21.240Z,93.40
2018-12-03T11:13:49.318Z,93.20
2018-12-03T11:16:22.313Z,92.90
2018-12-03T11:18:52.869Z,93.00
2018-12-03T11:21:21.815Z,92.80
2018-12-03T11:23:49.142Z,92.20
2018-12-03T11:26:17.306Z,91.70
2018-12-03T11:28:51.372Z,90.90
2018-12-03T11:31:20.419Z,90.80
2018-12-03T11:33:48.608Z,90.80
2018-12-03T11:36:33.964Z,91.20
2018-12-03T11:39:10.724Z,91.70
2018-12-03T11:41:38.810Z,92.40
2018-12-03T11:44:06.858Z,92.80
2018-12-03T11:46:34.866Z,92.80
2018-12-03T11:49:02.890Z,92.30
2018-12-03T11:51:30.987Z,92.10
2018-12-03T11:54:00.014Z,91.80
2018-12-03T11:56:28.776Z,91.90
2018-12-03T11:58:56.820Z,91.70
2018-12-03T12:01:24.833Z,91.60
2018-12-03T12:03:52.925Z,91.70
2018-12-03T12:06:20.979Z,91.60
2018-12-03T12:08:48.957Z,92.00
2018-12-03T12:11:16.971Z,92.20
2018-12-03T12:13:45.066Z,92.30
2018-12-03T12:16:13.070Z,92.60
2018-12-03T12:18:41.081Z,92.60
2018-12-03T12:21:09.065Z,93.00
2018-12-03T12:23:37.077Z,93.40
2018-12-03T12:26:05.486Z,93.60
2018-12-03T12:28:38.234Z,93.30
2018-12-03T12:31:01.536Z,92.70
2018-12-03T12:33:30.802Z,91.70
2018-12-03T12:35:59.468Z,90.80
2018-12-03T12:38:27.444Z,90.40
2018-12-03T12:40:55.525Z,90.10
2018-12-03T12:43:23.528Z,89.00
2018-12-03T12:45:54.684Z,89.90
2018-12-03T12:48:22.693Z,89.80
2018-12-03T12:50:50.706Z,90.70
2018-12-03T12:53:18.681Z,91.00
2018-12-03T12:55:46.664Z,91.30
2018-12-03T12:58:14.654Z,91.80
2018-12-03T13:00:42.904Z,92.00
2018-12-03T13:03:10.920Z,92.10
2018-12-03T13:05:38.983Z,92.30
2018-12-03T13:08:07.005Z,92.50
2018-12-03T13:10:35.005Z,92.40
2018-12-03T13:13:03.075Z,92.40
2018-12-03T13:15:31.303Z,92.80
2018-12-03T13:17:59.315Z,92.90
2018-12-03T13:20:27.349Z,93.10
2018-12-03T13:22:55.376Z,93.30
2018-12-03T13:25:23.394Z,93.50
2018-12-03T13:27:52.372Z,93.50
2018-12-03T13:30:20.401Z,93.50
2018-12-03T13:32:48.470Z,93.40
2018-12-03T13:35:16.491Z,93.30
2018-12-03T13:37:44.468Z,93.40
2018-12-03T13:40:16.543Z,93.20
2018-12-03T13:42:45.908Z,93.10
2018-12-03T13:45:22.364Z,93.10
2018-12-03T13:47:51.192Z,92.90
2018-12-03T13:50:19.209Z,92.80
2018-12-03T13:52:47.204Z,92.90
2018-12-03T13:55:16.728Z,93.10
2018-12-03T13:57:44.798Z,93.20
2018-12-03T14:00:17.889Z,93.50
2018-12-03T14:02:50.438Z,93.60
2018-12-03T14:05:18.920Z,93.80
2018-12-03T14:07:58.775Z,93.90
2018-12-03T14:11:05.640Z,94.00
2018-12-03T14:13:48.730Z,94.10
2018-12-03T14:16:28.012Z,94.10
2018-12-03T14:19:01.297Z,94.10
2018-12-03T14:21:36.146Z,94.20
2018-12-03T14:24:09.293Z,94.30
2018-12-03T14:26:37.333Z,94.20
2018-12-03T14:29:06.001Z,94.10
2018-12-03T14:31:34.008Z,94.10
2018-12-03T14:34:02.056Z,94.10
2018-12-03T14:36:30.084Z,93.90
2018-12-03T14:38:58.076Z,93.90
2018-12-03T14:41:26.063Z,93.80
2018-12-03T14:43:54.088Z,93.70
2018-12-03T14:46:22.114Z,93.80
2018-12-03T14:48:50.506Z,93.80
2018-12-03T14:51:18.510Z,93.70
2018-12-03T14:53:46.595Z,93.70
2018-12-03T14:56:14.641Z,93.70
2018-12-03T14:58:42.649Z,93.60
2018-12-03T15:01:10.674Z,93.60
2018-12-03T15:03:38.920Z,93.50
2018-12-03T15:06:07.849Z,93.50
2018-12-03T15:08:35.320Z,93.30
2018-12-03T15:11:03.384Z,93.30
2018-12-03T15:13:31.401Z,93.30
2018-12-03T15:15:59.423Z,93.20
2018-12-03T15:18:27.433Z,93.00
2018-12-03T15:20:56.401Z,93.10
2018-12-03T15:23:24.432Z,93.20
2018-12-03T15:25:52.428Z,93.40
2018-12-03T15:28:20.433Z,93.40
2018-12-03T15:30:48.436Z,93.50
2018-12-03T15:33:16.479Z,93.60
2018-12-03T15:35:44.485Z,93.70
2018-12-03T15:38:12.515Z,93.80
2018-12-03T15:40:41.552Z,93.90
2018-12-03T15:43:09.685Z,93.90
2018-12-03T15:45:37.787Z,94.10
2018-12-03T15:48:05.910Z,94.10
2018-12-03T15:50:33.957Z,94.20
2018-12-03T15:53:02.040Z,94.20
2018-12-03T15:55:30.073Z,94.20
2018-12-03T15:57:58.224Z,94.30
2018-12-03T16:00:26.351Z,94.40
2018-12-03T16:02:54.397Z,94.50
2018-12-03T16:05:24.458Z,94.50
2018-12-03T16:07:52.528Z,94.60
2018-12-03T16:10:20.700Z,94.70
2018-12-03T16:12:49.292Z,94.80
2018-12-03T16:15:17.392Z,95.00
2018-12-03T16:17:45.448Z,95.30
2018-12-03T16:20:13.488Z,95.80
2018-12-03T16:22:42.088Z,96.00
2018-12-03T16:25:10.102Z,96.30
2018-12-03T16:27:38.148Z,96.50
2018-12-03T16:30:10.676Z,96.80
2018-12-03T16:32:38.732Z,96.90
2018-12-03T16:35:06.778Z,97.10
2018-12-03T16:37:35.394Z,97.20
2018-12-03T16:40:04.116Z,97.10
2018-12-03T16:42:32.464Z,97.30
2018-12-03T16:45:00.444Z,97.30
2018-12-03T16:47:28.428Z,97.40
2018-12-03T16:49:56.485Z,97.40
2018-12-03T16:52:24.500Z,97.50
2018-12-03T16:54:52.588Z,97.50
2018-12-03T16:57:20.595Z,97.50
2018-12-03T16:59:48.645Z,97.50
2018-12-03T17:02:16.904Z,97.60
2018-12-03T17:04:45.008Z,97.70
2018-12-03T17:07:14.168Z,97.70
2018-12-03T17:09:41.712Z,97.70
2018-12-03T17:12:09.708Z,97.50
2018-12-03T17:14:37.728Z,97.30
2018-12-03T17:17:06.001Z,97.00
2018-12-03T17:19:34.201Z,96.80
2018-12-03T17:22:12.335Z,96.70
2018-12-03T17:24:42.062Z,96.60
2018-12-03T17:27:10.707Z,96.50
2018-12-03T17:29:39.015Z,96.40
2018-12-03T17:32:07.671Z,96.30
2018-12-03T17:34:35.693Z,96.20
2018-12-03T17:37:03.912Z,96.10
2018-12-03T17:39:31.978Z,96.10
2018-12-03T17:42:00.009Z,96.10
2018-12-03T17:44:28.132Z,96.30
2018-12-03T17:46:56.401Z,96.40
2018-12-03T17:49:24.536Z,96.70
2018-12-03T17:51:52.647Z,96.90
2018-12-03T17:54:20.817Z,97.00
2018-12-03T17:56:49.420Z,97.10
2018-12-03T17:59:17.901Z,97.10
2018-12-03T18:01:45.932Z,97.20
2018-12-03T18:04:15.649Z,97.20
2018-12-03T18:06:44.485Z,97.10
2018-12-03T18:09:13.284Z,97.10
2018-12-03T18:11:42.684Z,97.00
2018-12-03T18:14:10.785Z,96.90
2018-12-03T18:16:39.101Z,96.70
2018-12-03T18:19:07.636Z,96.60
2018-12-03T18:21:35.824Z,96.50
2018-12-03T18:24:04.018Z,96.50
2018-12-03T18:26:32.228Z,96.60
2018-12-03T18:29:00.361Z,96.70
2018-12-03T18:31:28.536Z,96.80
2018-12-03T18:33:56.817Z,96.80
2018-12-03T18:36:25.005Z,96.80
2018-12-03T18:38:53.650Z,97.20
2018-12-03T18:41:21.992Z,96.70
2018-12-03T18:43:50.077Z,96.80
2018-12-03T18:46:18.372Z,96.80
2018-12-03T18:48:48.949Z,96.90
2018-12-03T18:51:17.509Z,97.00
2018-12-03T18:53:45.602Z,97.30
2018-12-03T18:56:14.511Z,97.40
2018-12-03T18:58:54.710Z,97.40
2018-12-03T19:01:22.832Z,97.50
2018-12-03T19:03:50.868Z,97.70
2018-12-03T19:06:19.333Z,97.80
2018-12-03T19:08:47.469Z,97.80
2018-12-03T19:11:15.615Z,97.60
2018-12-03T19:13:44.790Z,97.20
2018-12-03T19:16:13.201Z,96.90
2018-12-03T19:18:42.116Z,96.70
2018-12-03T19:21:10.268Z,96.50
2018-12-03T19:23:38.789Z,96.40
2018-12-03T19:26:06.961Z,96.30
2018-12-03T19:28:35.232Z,96.20
2018-12-03T19:31:03.397Z,96.10
2018-12-03T19:33:31.698Z,96.00
2018-12-03T19:35:59.921Z,96.10
2018-12-03T19:38:27.990Z,96.00
2018-12-03T19:40:56.010Z,96.00
2018-12-03T19:43:24.156Z,96.10
2018-12-03T19:45:52.985Z,96.10
2018-12-03T19:48:21.984Z,96.20
2018-12-03T19:50:50.106Z,96.30
2018-12-03T19:53:18.409Z,96.40
2018-12-03T19:55:47.519Z,96.40
2018-12-03T19:58:19.388Z,96.30
2018-12-03T20:00:48.407Z,96.40
2018-12-03T20:03:16.576Z,96.40
2018-12-03T20:05:44.852Z,96.40
2018-12-03T20:08:13.615Z,96.30
2018-12-03T20:10:42.825Z,96.40
2018-12-03T20:13:10.644Z,96.30
2018-12-03T20:15:38.844Z,96.20
2018-12-03T20:18:07.137Z,96.20
2018-12-03T20:20:44.117Z,96.50
2018-12-03T20:23:19.520Z,96.60
2018-12-03T20:26:05.223Z,96.70
2018-12-03T20:29:46.303Z,96.60
2018-12-03T20:32:20.232Z,96.50
2018-12-03T20:35:14.541Z,96.40
2018-12-03T20:38:04.524Z,96.40
2018-12-03T20:40:39.912Z,96.40
2018-12-03T20:43:14.781Z,96.40
2018-12-03T20:46:09.536Z,96.60
2018-12-03T20:51:52.049Z,96.40
2018-12-03T20:54:20.104Z,96.30
2018-12-03T20:56:48.179Z,96.30
2018-12-03T20:59:16.381Z,96.30
2018-12-03T21:01:47.352Z,96.30
2018-12-03T21:04:20.892Z,96.30
2018-12-03T21:06:48.920Z,96.40
2018-12-03T21:09:16.971Z,96.40
2018-12-03T21:11:45.030Z,96.40
2018-12-03T21:14:14.093Z,96.30
2018-12-03T21:17:12.225Z,96.20
2018-12-03T21:19:41.682Z,96.10
2018-12-03T21:22:09.654Z,96.10
2018-12-03T21:24:37.650Z,96.10
2018-12-03T21:27:05.641Z,96.10
2018-12-03T21:29:33.621Z,96.00
2018-12-03T21:32:01.604Z,96.10
2018-12-03T21:34:29.613Z,96.10
2018-12-03T21:36:57.690Z,96.00
2018-12-03T21:39:27.387Z,95.90
2018-12-03T21:41:56.536Z,95.90
2018-12-03T21:44:24.541Z,95.80
2018-12-03T21:46:52.544Z,95.80
2018-12-03T21:49:20.541Z,95.80
2018-12-03T21:51:48.652Z,95.80
2018-12-03T21:54:16.631Z,95.70
2018-12-03T21:56:44.632Z,95.70
2018-12-03T21:59:12.922Z,95.80
2018-12-03T22:01:40.983Z,95.80
2018-12-03T22:04:08.950Z,95.80
2018-12-03T22:06:36.976Z,95.70
2018-12-03T22:09:06.334Z,95.60
2018-12-03T22:11:34.327Z,95.50
2018-12-03T22:14:02.280Z,95.50
2018-12-03T22:16:30.280Z,95.40
2018-12-03T22:18:58.264Z,95.40
2018-12-03T22:21:26.297Z,95.80
2018-12-03T22:23:54.252Z,95.50
2018-12-03T22:26:22.198Z,95.50
2018-12-03T22:28:50.172Z,95.60
2018-12-03T22:31:18.150Z,95.70
2018-12-03T22:33:46.118Z,95.70
2018-12-03T22:36:15.094Z,95.70
2018-12-03T22:38:43.240Z,95.70
2018-12-03T22:41:11.781Z,95.70
2018-12-03T22:43:39.761Z,95.70
2018-12-03T22:46:07.738Z,95.70
2018-12-03T22:48:35.701Z,95.70
2018-12-03T22:51:03.746Z,95.70
2018-12-03T22:53:31.708Z,95.80
2018-12-03T22:55:59.768Z,95.90
2018-12-03T22:58:27.832Z,95.90
2018-12-03T23:01:01.165Z,95.90
2018-12-03T23:03:29.176Z,95.90
2018-12-03T23:05:57.173Z,95.90
2018-12-03T23:08:25.220Z,95.80
2018-12-03T23:10:53.220Z,95.90
2018-12-03T23:13:21.212Z,96.10
2018-12-03T23:15:49.189Z,96.20
2018-12-03T23:18:17.189Z,96.20
2018-12-03T23:20:45.224Z,96.20
2018-12-03T23:23:14.096Z,96.20
2018-12-03T23:25:42.669Z,96.30
2018-12-03T23:28:10.604Z,96.30
2018-12-03T23:30:38.613Z,96.40
2018-12-03T23:33:06.572Z,96.50
2018-12-03T23:35:34.840Z,96.60
2018-12-03T23:38:02.906Z,96.70
2018-12-03T23:40:30.864Z,96.70
2018-12-03T23:42:58.837Z,96.60
2018-12-03T23:45:27.388Z,96.70
2018-12-03T23:47:55.349Z,96.70
2018-12-03T23:50:23.348Z,96.70
2018-12-03T23:52:51.320Z,96.70
2018-12-03T23:55:19.304Z,96.70
2018-12-03T23:57:47.260Z,96.70
